sensor_id;sensor_type;location;lat;lon;timestamp;pressure;altitude;pressure_sealevel;temperature;humidity
76730;BME280;65653;53.106;18.046;2024-01-30T00:01:29;102382.14;;;-0.49;100.00
76730;BME280;65653;53.106;18.046;2024-01-30T00:03:55;102381.95;;;-0.48;100.00
76730;BME280;65653;53.106;18.046;2024-01-30T00:06:22;102380.45;;;-0.48;100.00
76730;BME280;65653;53.106;18.046;2024-01-30T00:08:48;102376.81;;;-0.48;100.00
76730;BME280;65653;53.106;18.046;2024-01-30T00:11:16;102377.04;;;-0.54;100.00
76730;BME280;65653;53.106;18.046;2024-01-30T00:13:42;102375.65;;;-0.61;100.00
76730;BME280;65653;53.106;18.046;2024-01-30T00:16:20;102373.81;;;-0.64;100.00
76730;BME280;65653;53.106;18.046;2024-01-30T00:18:47;102377.75;;;-0.63;100.00
76730;BME280;65653;53.106;18.046;2024-01-30T00:21:14;102376.35;;;-0.61;100.00
76730;BME280;65653;53.106;18.046;2024-01-30T00:23:40;102376.38;;;-0.61;100.00
76730;BME280;65653;53.106;18.046;2024-01-30T00:26:07;102375.91;;;-0.62;100.00
76730;BME280;65653;53.106;18.046;2024-01-30T00:28:33;102369.80;;;-0.63;100.00
76730;BME280;65653;53.106;18.046;2024-01-30T00:31:00;102368.05;;;-0.65;100.00
76730;BME280;65653;53.106;18.046;2024-01-30T00:33:26;102369.78;;;-0.66;100.00
76730;BME280;65653;53.106;18.046;2024-01-30T00:35:53;102370.54;;;-0.66;100.00
76730;BME280;65653;53.106;18.046;2024-01-30T00:38:19;102366.52;;;-0.66;100.00
76730;BME280;65653;53.106;18.046;2024-01-30T00:40:46;102370.29;;;-0.65;100.00
76730;BME280;65653;53.106;18.046;2024-01-30T00:43:12;102370.14;;;-0.66;100.00
76730;BME280;65653;53.106;18.046;2024-01-30T00:45:39;102367.02;;;-0.65;100.00
76730;BME280;65653;53.106;18.046;2024-01-30T00:48:06;102359.90;;;-0.68;100.00
76730;BME280;65653;53.106;18.046;2024-01-30T00:50:32;102365.77;;;-0.66;100.00
76730;BME280;65653;53.106;18.046;2024-01-30T00:52:59;102363.52;;;-0.64;100.00
76730;BME280;65653;53.106;18.046;2024-01-30T00:55:25;102358.79;;;-0.64;100.00
76730;BME280;65653;53.106;18.046;2024-01-30T00:57:51;102359.20;;;-0.62;100.00
76730;BME280;65653;53.106;18.046;2024-01-30T01:00:18;102360.13;;;-0.62;100.00
76730;BME280;65653;53.106;18.046;2024-01-30T01:02:46;102360.25;;;-0.64;100.00
76730;BME280;65653;53.106;18.046;2024-01-30T01:05:12;102359.69;;;-0.64;100.00
76730;BME280;65653;53.106;18.046;2024-01-30T01:07:39;102361.80;;;-0.63;100.00
76730;BME280;65653;53.106;18.046;2024-01-30T01:10:06;102362.96;;;-0.62;100.00
76730;BME280;65653;53.106;18.046;2024-01-30T01:12:33;102362.31;;;-0.60;100.00
76730;BME280;65653;53.106;18.046;2024-01-30T01:14:59;102354.23;;;-0.61;100.00
76730;BME280;65653;53.106;18.046;2024-01-30T01:17:25;102352.73;;;-0.63;100.00
76730;BME280;65653;53.106;18.046;2024-01-30T01:19:52;102350.24;;;-0.67;100.00
76730;BME280;65653;53.106;18.046;2024-01-30T01:22:18;102348.19;;;-0.69;100.00
76730;BME280;65653;53.106;18.046;2024-01-30T01:24:45;102347.46;;;-0.69;100.00
76730;BME280;65653;53.106;18.046;2024-01-30T01:27:11;102348.08;;;-0.64;100.00
76730;BME280;65653;53.106;18.046;2024-01-30T01:29:38;102346.61;;;-0.58;100.00
76730;BME280;65653;53.106;18.046;2024-01-30T01:32:04;102347.93;;;-0.53;100.00
76730;BME280;65653;53.106;18.046;2024-01-30T01:34:32;102344.60;;;-0.52;100.00
76730;BME280;65653;53.106;18.046;2024-01-30T01:36:58;102345.08;;;-0.54;100.00
76730;BME280;65653;53.106;18.046;2024-01-30T01:39:25;102339.56;;;-0.53;100.00
76730;BME280;65653;53.106;18.046;2024-01-30T01:41:51;102339.71;;;-0.52;100.00
76730;BME280;65653;53.106;18.046;2024-01-30T01:44:18;102338.39;;;-0.51;100.00
76730;BME280;65653;53.106;18.046;2024-01-30T01:46:46;102339.15;;;-0.52;100.00
76730;BME280;65653;53.106;18.046;2024-01-30T01:49:13;102339.95;;;-0.56;100.00
76730;BME280;65653;53.106;18.046;2024-01-30T01:51:42;102345.27;;;-0.57;100.00
76730;BME280;65653;53.106;18.046;2024-01-30T01:54:11;102345.82;;;-0.60;100.00
76730;BME280;65653;53.106;18.046;2024-01-30T01:56:38;102348.40;;;-0.66;100.00
76730;BME280;65653;53.106;18.046;2024-01-30T01:59:06;102347.57;;;-0.71;100.00
76730;BME280;65653;53.106;18.046;2024-01-30T02:01:36;102347.28;;;-0.75;100.00
76730;BME280;65653;53.106;18.046;2024-01-30T02:04:04;102346.02;;;-0.78;100.00
76730;BME280;65653;53.106;18.046;2024-01-30T02:06:31;102340.75;;;-0.78;100.00
76730;BME280;65653;53.106;18.046;2024-01-30T02:08:58;102344.18;;;-0.78;100.00
76730;BME280;65653;53.106;18.046;2024-01-30T02:11:24;102343.30;;;-0.84;100.00
76730;BME280;65653;53.106;18.046;2024-01-30T02:13:52;102346.86;;;-0.92;100.00
76730;BME280;65653;53.106;18.046;2024-01-30T02:16:18;102347.66;;;-0.93;100.00
76730;BME280;65653;53.106;18.046;2024-01-30T02:18:45;102345.65;;;-0.96;100.00
76730;BME280;65653;53.106;18.046;2024-01-30T02:21:15;102344.71;;;-0.95;100.00
76730;BME280;65653;53.106;18.046;2024-01-30T02:23:43;102340.94;;;-0.96;100.00
76730;BME280;65653;53.106;18.046;2024-01-30T02:26:10;102338.35;;;-0.97;100.00
76730;BME280;65653;53.106;18.046;2024-01-30T02:28:38;102341.49;;;-1.02;100.00
76730;BME280;65653;53.106;18.046;2024-01-30T02:31:05;102341.16;;;-1.05;100.00
76730;BME280;65653;53.106;18.046;2024-01-30T02:33:31;102340.36;;;-1.07;100.00
76730;BME280;65653;53.106;18.046;2024-01-30T02:35:57;102343.09;;;-1.07;100.00
76730;BME280;65653;53.106;18.046;2024-01-30T02:38:24;102345.17;;;-1.09;100.00
76730;BME280;65653;53.106;18.046;2024-01-30T02:40:53;102343.93;;;-1.12;100.00
76730;BME280;65653;53.106;18.046;2024-01-30T02:43:20;102342.16;;;-1.13;100.00
76730;BME280;65653;53.106;18.046;2024-01-30T02:45:46;102339.70;;;-1.11;100.00
76730;BME280;65653;53.106;18.046;2024-01-30T02:48:13;102336.40;;;-1.07;100.00
76730;BME280;65653;53.106;18.046;2024-01-30T02:50:40;102331.25;;;-1.03;100.00
76730;BME280;65653;53.106;18.046;2024-01-30T02:53:08;102332.35;;;-1.03;100.00
76730;BME280;65653;53.106;18.046;2024-01-30T02:55:34;102330.89;;;-1.06;100.00
76730;BME280;65653;53.106;18.046;2024-01-30T02:58:01;102325.73;;;-1.02;100.00
76730;BME280;65653;53.106;18.046;2024-01-30T03:00:27;102327.27;;;-0.95;100.00
76730;BME280;65653;53.106;18.046;2024-01-30T03:02:54;102324.88;;;-0.88;100.00
76730;BME280;65653;53.106;18.046;2024-01-30T03:05:20;102324.63;;;-0.84;100.00
76730;BME280;65653;53.106;18.046;2024-01-30T03:07:47;102323.28;;;-0.80;100.00
76730;BME280;65653;53.106;18.046;2024-01-30T03:10:13;102322.55;;;-0.77;100.00
76730;BME280;65653;53.106;18.046;2024-01-30T03:12:40;102322.96;;;-0.75;100.00
76730;BME280;65653;53.106;18.046;2024-01-30T03:15:07;102325.27;;;-0.74;100.00
76730;BME280;65653;53.106;18.046;2024-01-30T03:17:33;102329.98;;;-0.71;100.00
76730;BME280;65653;53.106;18.046;2024-01-30T03:19:59;102325.03;;;-0.70;100.00
76730;BME280;65653;53.106;18.046;2024-01-30T03:22:26;102330.36;;;-0.68;100.00
76730;BME280;65653;53.106;18.046;2024-01-30T03:24:53;102331.49;;;-0.66;100.00
76730;BME280;65653;53.106;18.046;2024-01-30T03:27:19;102332.46;;;-0.67;100.00
76730;BME280;65653;53.106;18.046;2024-01-30T03:29:45;102335.77;;;-0.67;100.00
76730;BME280;65653;53.106;18.046;2024-01-30T03:32:12;102335.77;;;-0.70;100.00
76730;BME280;65653;53.106;18.046;2024-01-30T03:34:39;102336.29;;;-0.71;100.00
76730;BME280;65653;53.106;18.046;2024-01-30T03:37:05;102336.05;;;-0.72;100.00
76730;BME280;65653;53.106;18.046;2024-01-30T03:39:32;102333.96;;;-0.74;100.00
76730;BME280;65653;53.106;18.046;2024-01-30T03:41:58;102334.02;;;-0.72;100.00
76730;BME280;65653;53.106;18.046;2024-01-30T03:44:25;102329.27;;;-0.71;100.00
76730;BME280;65653;53.106;18.046;2024-01-30T03:46:54;102324.80;;;-0.72;100.00
76730;BME280;65653;53.106;18.046;2024-01-30T03:49:20;102322.39;;;-0.75;100.00
76730;BME280;65653;53.106;18.046;2024-01-30T03:51:47;102323.83;;;-0.77;100.00
76730;BME280;65653;53.106;18.046;2024-01-30T03:54:14;102320.67;;;-0.82;100.00
76730;BME280;65653;53.106;18.046;2024-01-30T03:56:40;102322.20;;;-0.86;100.00
76730;BME280;65653;53.106;18.046;2024-01-30T03:59:07;102319.51;;;-0.86;100.00
76730;BME280;65653;53.106;18.046;2024-01-30T04:01:33;102318.81;;;-0.87;100.00
76730;BME280;65653;53.106;18.046;2024-01-30T04:04:00;102323.04;;;-0.85;100.00
76730;BME280;65653;53.106;18.046;2024-01-30T04:06:26;102322.67;;;-0.84;100.00
76730;BME280;65653;53.106;18.046;2024-01-30T04:08:53;102325.84;;;-0.83;100.00
76730;BME280;65653;53.106;18.046;2024-01-30T04:11:19;102326.02;;;-0.80;100.00
76730;BME280;65653;53.106;18.046;2024-01-30T04:13:46;102322.53;;;-0.80;100.00
76730;BME280;65653;53.106;18.046;2024-01-30T04:16:21;102324.92;;;-0.80;100.00
76730;BME280;65653;53.106;18.046;2024-01-30T04:18:51;102324.45;;;-0.78;100.00
76730;BME280;65653;53.106;18.046;2024-01-30T04:21:18;102319.85;;;-0.77;100.00
76730;BME280;65653;53.106;18.046;2024-01-30T04:23:44;102324.31;;;-0.76;100.00
76730;BME280;65653;53.106;18.046;2024-01-30T04:26:11;102323.70;;;-0.75;100.00
76730;BME280;65653;53.106;18.046;2024-01-30T04:28:37;102320.17;;;-0.74;100.00
76730;BME280;65653;53.106;18.046;2024-01-30T04:31:04;102315.59;;;-0.73;100.00
76730;BME280;65653;53.106;18.046;2024-01-30T04:33:30;102316.50;;;-0.73;100.00
76730;BME280;65653;53.106;18.046;2024-01-30T04:35:57;102314.70;;;-0.70;100.00
76730;BME280;65653;53.106;18.046;2024-01-30T04:38:24;102314.77;;;-0.68;100.00
76730;BME280;65653;53.106;18.046;2024-01-30T04:40:50;102318.45;;;-0.63;100.00
76730;BME280;65653;53.106;18.046;2024-01-30T04:43:16;102315.13;;;-0.59;100.00
76730;BME280;65653;53.106;18.046;2024-01-30T04:45:43;102317.86;;;-0.57;100.00
76730;BME280;65653;53.106;18.046;2024-01-30T04:48:10;102321.67;;;-0.54;100.00
76730;BME280;65653;53.106;18.046;2024-01-30T04:50:36;102323.95;;;-0.52;100.00
76730;BME280;65653;53.106;18.046;2024-01-30T04:53:03;102327.34;;;-0.52;100.00
76730;BME280;65653;53.106;18.046;2024-01-30T04:55:30;102328.89;;;-0.50;100.00
76730;BME280;65653;53.106;18.046;2024-01-30T04:57:56;102329.85;;;-0.48;100.00
76730;BME280;65653;53.106;18.046;2024-01-30T05:00:23;102330.44;;;-0.46;100.00
76730;BME280;65653;53.106;18.046;2024-01-30T05:02:49;102334.71;;;-0.45;100.00
76730;BME280;65653;53.106;18.046;2024-01-30T05:05:16;102332.02;;;-0.43;100.00
76730;BME280;65653;53.106;18.046;2024-01-30T05:07:43;102329.79;;;-0.41;100.00
76730;BME280;65653;53.106;18.046;2024-01-30T05:10:09;102329.81;;;-0.39;100.00
76730;BME280;65653;53.106;18.046;2024-01-30T05:12:35;102331.38;;;-0.35;100.00
76730;BME280;65653;53.106;18.046;2024-01-30T05:15:03;102327.27;;;-0.30;100.00
76730;BME280;65653;53.106;18.046;2024-01-30T05:17:29;102320.88;;;-0.27;100.00
76730;BME280;65653;53.106;18.046;2024-01-30T05:19:56;102313.73;;;-0.29;100.00
76730;BME280;65653;53.106;18.046;2024-01-30T05:22:24;102315.41;;;-0.27;100.00
76730;BME280;65653;53.106;18.046;2024-01-30T05:24:50;102309.52;;;-0.23;100.00
76730;BME280;65653;53.106;18.046;2024-01-30T05:27:17;102310.10;;;-0.18;100.00
76730;BME280;65653;53.106;18.046;2024-01-30T05:29:44;102310.63;;;-0.14;100.00
76730;BME280;65653;53.106;18.046;2024-01-30T05:32:10;102313.86;;;-0.11;100.00
76730;BME280;65653;53.106;18.046;2024-01-30T05:34:39;102312.55;;;-0.08;100.00
76730;BME280;65653;53.106;18.046;2024-01-30T05:37:05;102311.89;;;-0.06;100.00
76730;BME280;65653;53.106;18.046;2024-01-30T05:39:32;102312.29;;;-0.04;100.00
76730;BME280;65653;53.106;18.046;2024-01-30T05:41:59;102313.55;;;-0.01;100.00
76730;BME280;65653;53.106;18.046;2024-01-30T05:44:26;102312.23;;;0.06;100.00
76730;BME280;65653;53.106;18.046;2024-01-30T05:46:52;102311.27;;;0.09;100.00
76730;BME280;65653;53.106;18.046;2024-01-30T05:49:19;102315.67;;;0.09;100.00
76730;BME280;65653;53.106;18.046;2024-01-30T05:51:46;102316.88;;;0.10;100.00
76730;BME280;65653;53.106;18.046;2024-01-30T05:54:39;102328.11;;;0.13;100.00
76730;BME280;65653;53.106;18.046;2024-01-30T05:57:14;102329.64;;;0.14;100.00
76730;BME280;65653;53.106;18.046;2024-01-30T05:59:40;102330.84;;;0.13;100.00
76730;BME280;65653;53.106;18.046;2024-01-30T06:02:07;102327.49;;;0.11;100.00
76730;BME280;65653;53.106;18.046;2024-01-30T06:04:33;102325.08;;;0.09;100.00
76730;BME280;65653;53.106;18.046;2024-01-30T06:06:59;102324.23;;;0.09;100.00
76730;BME280;65653;53.106;18.046;2024-01-30T06:09:28;102323.51;;;0.09;100.00
76730;BME280;65653;53.106;18.046;2024-01-30T06:11:55;102326.80;;;0.08;100.00
76730;BME280;65653;53.106;18.046;2024-01-30T06:14:22;102324.06;;;0.08;100.00
76730;BME280;65653;53.106;18.046;2024-01-30T06:16:49;102329.22;;;0.07;100.00
76730;BME280;65653;53.106;18.046;2024-01-30T06:19:16;102330.72;;;0.06;100.00
76730;BME280;65653;53.106;18.046;2024-01-30T06:21:43;102333.28;;;0.09;100.00
76730;BME280;65653;53.106;18.046;2024-01-30T06:24:09;102332.09;;;0.07;100.00
76730;BME280;65653;53.106;18.046;2024-01-30T06:26:36;102332.77;;;0.06;100.00
76730;BME280;65653;53.106;18.046;2024-01-30T06:29:03;102336.00;;;0.06;100.00
76730;BME280;65653;53.106;18.046;2024-01-30T06:31:30;102337.20;;;0.04;100.00
76730;BME280;65653;53.106;18.046;2024-01-30T06:33:57;102343.02;;;0.04;100.00
76730;BME280;65653;53.106;18.046;2024-01-30T06:36:24;102336.73;;;0.03;100.00
76730;BME280;65653;53.106;18.046;2024-01-30T06:38:50;102336.91;;;0.03;100.00
76730;BME280;65653;53.106;18.046;2024-01-30T06:41:17;102338.15;;;0.04;100.00
76730;BME280;65653;53.106;18.046;2024-01-30T06:43:43;102333.14;;;0.03;100.00
76730;BME280;65653;53.106;18.046;2024-01-30T06:46:11;102327.55;;;0.02;100.00
76730;BME280;65653;53.106;18.046;2024-01-30T06:48:38;102328.98;;;0.02;100.00
76730;BME280;65653;53.106;18.046;2024-01-30T06:51:06;102330.81;;;0.05;100.00
76730;BME280;65653;53.106;18.046;2024-01-30T06:53:33;102331.64;;;0.06;100.00
76730;BME280;65653;53.106;18.046;2024-01-30T06:56:00;102335.74;;;0.10;100.00
76730;BME280;65653;53.106;18.046;2024-01-30T06:58:26;102339.30;;;0.14;100.00
76730;BME280;65653;53.106;18.046;2024-01-30T07:00:53;102339.39;;;0.18;100.00
76730;BME280;65653;53.106;18.046;2024-01-30T07:03:19;102338.70;;;0.23;100.00
76730;BME280;65653;53.106;18.046;2024-01-30T07:05:46;102339.96;;;0.29;100.00
76730;BME280;65653;53.106;18.046;2024-01-30T07:08:12;102339.70;;;0.33;100.00
76730;BME280;65653;53.106;18.046;2024-01-30T07:10:39;102340.11;;;0.37;100.00
76730;BME280;65653;53.106;18.046;2024-01-30T07:13:05;102341.98;;;0.44;100.00
76730;BME280;65653;53.106;18.046;2024-01-30T07:15:32;102342.73;;;0.53;100.00
76730;BME280;65653;53.106;18.046;2024-01-30T07:17:58;102344.02;;;0.60;100.00
76730;BME280;65653;53.106;18.046;2024-01-30T07:20:25;102346.33;;;0.67;100.00
76730;BME280;65653;53.106;18.046;2024-01-30T07:22:52;102339.02;;;0.72;100.00
76730;BME280;65653;53.106;18.046;2024-01-30T07:25:18;102341.70;;;0.79;99.77
76730;BME280;65653;53.106;18.046;2024-01-30T07:27:45;102340.15;;;0.86;99.59
76730;BME280;65653;53.106;18.046;2024-01-30T07:30:11;102344.05;;;0.92;99.53
76730;BME280;65653;53.106;18.046;2024-01-30T07:32:38;102344.83;;;0.99;98.65
76730;BME280;65653;53.106;18.046;2024-01-30T07:35:05;102343.59;;;1.07;98.47
76730;BME280;65653;53.106;18.046;2024-01-30T07:37:32;102340.55;;;1.14;98.39
76730;BME280;65653;53.106;18.046;2024-01-30T07:39:59;102341.91;;;1.20;97.74
76730;BME280;65653;53.106;18.046;2024-01-30T07:42:25;102342.85;;;1.28;97.47
76730;BME280;65653;53.106;18.046;2024-01-30T07:44:51;102347.70;;;1.34;97.28
76730;BME280;65653;53.106;18.046;2024-01-30T07:47:18;102342.89;;;1.40;96.88
76730;BME280;65653;53.106;18.046;2024-01-30T07:49:44;102341.11;;;1.47;96.81
76730;BME280;65653;53.106;18.046;2024-01-30T07:52:11;102346.65;;;1.54;95.99
76730;BME280;65653;53.106;18.046;2024-01-30T07:54:37;102346.67;;;1.61;96.21
76730;BME280;65653;53.106;18.046;2024-01-30T07:57:05;102343.19;;;1.69;95.53
76730;BME280;65653;53.106;18.046;2024-01-30T07:59:31;102345.80;;;1.78;95.52
76730;BME280;65653;53.106;18.046;2024-01-30T08:01:58;102345.02;;;1.89;95.59
76730;BME280;65653;53.106;18.046;2024-01-30T08:04:24;102341.84;;;2.00;95.10
76730;BME280;65653;53.106;18.046;2024-01-30T08:06:51;102345.31;;;2.10;94.10
76730;BME280;65653;53.106;18.046;2024-01-30T08:09:17;102344.21;;;2.18;93.41
76730;BME280;65653;53.106;18.046;2024-01-30T08:11:44;102344.74;;;2.30;94.04
76730;BME280;65653;53.106;18.046;2024-01-30T08:14:10;102346.84;;;2.39;92.29
76730;BME280;65653;53.106;18.046;2024-01-30T08:16:37;102344.77;;;2.47;91.62
76730;BME280;65653;53.106;18.046;2024-01-30T08:19:03;102346.45;;;2.59;91.09
76730;BME280;65653;53.106;18.046;2024-01-30T08:21:29;102352.03;;;2.76;90.98
76730;BME280;65653;53.106;18.046;2024-01-30T08:23:56;102351.17;;;3.02;89.98
76730;BME280;65653;53.106;18.046;2024-01-30T08:26:22;102348.36;;;3.29;88.26
76730;BME280;65653;53.106;18.046;2024-01-30T08:28:49;102342.36;;;3.51;87.41
76730;BME280;65653;53.106;18.046;2024-01-30T08:31:16;102342.16;;;3.77;88.05
76730;BME280;65653;53.106;18.046;2024-01-30T08:33:43;102339.68;;;3.94;85.31
76730;BME280;65653;53.106;18.046;2024-01-30T08:36:09;102343.76;;;4.17;86.15
76730;BME280;65653;53.106;18.046;2024-01-30T08:38:36;102340.94;;;4.48;84.91
76730;BME280;65653;53.106;18.046;2024-01-30T08:41:02;102340.18;;;4.70;83.10
76730;BME280;65653;53.106;18.046;2024-01-30T08:43:29;102342.79;;;4.88;82.01
76730;BME280;65653;53.106;18.046;2024-01-30T08:45:59;102339.40;;;5.11;80.91
76730;BME280;65653;53.106;18.046;2024-01-30T08:48:26;102338.18;;;5.29;78.28
76730;BME280;65653;53.106;18.046;2024-01-30T08:50:53;102334.56;;;5.58;79.67
76730;BME280;65653;53.106;18.046;2024-01-30T08:53:19;102333.86;;;5.95;77.33
76730;BME280;65653;53.106;18.046;2024-01-30T08:55:46;102327.54;;;6.14;75.43
76730;BME280;65653;53.106;18.046;2024-01-30T08:58:12;102326.27;;;6.40;74.24
76730;BME280;65653;53.106;18.046;2024-01-30T09:00:39;102324.43;;;6.76;72.13
76730;BME280;65653;53.106;18.046;2024-01-30T09:03:05;102327.19;;;7.07;71.98
76730;BME280;65653;53.106;18.046;2024-01-30T09:05:32;102325.08;;;7.29;70.94
76730;BME280;65653;53.106;18.046;2024-01-30T09:07:58;102325.14;;;7.30;69.27
76730;BME280;65653;53.106;18.046;2024-01-30T09:10:24;102322.61;;;7.28;69.34
76730;BME280;65653;53.106;18.046;2024-01-30T09:12:51;102315.15;;;7.27;69.43
76730;BME280;65653;53.106;18.046;2024-01-30T09:15:17;102314.05;;;7.25;68.60
76730;BME280;65653;53.106;18.046;2024-01-30T09:17:45;102316.84;;;7.32;67.91
76730;BME280;65653;53.106;18.046;2024-01-30T09:20:11;102318.27;;;7.33;69.64
76730;BME280;65653;53.106;18.046;2024-01-30T09:22:38;102319.72;;;7.35;71.12
76730;BME280;65653;53.106;18.046;2024-01-30T09:25:04;102318.33;;;7.46;68.81
76730;BME280;65653;53.106;18.046;2024-01-30T09:27:31;102313.59;;;7.49;67.73
76730;BME280;65653;53.106;18.046;2024-01-30T09:29:57;102318.17;;;7.49;68.19
76730;BME280;65653;53.106;18.046;2024-01-30T09:32:24;102313.82;;;7.52;68.34
76730;BME280;65653;53.106;18.046;2024-01-30T09:34:50;102313.67;;;7.86;68.16
76730;BME280;65653;53.106;18.046;2024-01-30T09:37:17;102309.83;;;8.16;65.14
76730;BME280;65653;53.106;18.046;2024-01-30T09:39:44;102313.48;;;8.57;64.58
76730;BME280;65653;53.106;18.046;2024-01-30T09:44:46;102311.14;;;9.52;62.19
76730;BME280;65653;53.106;18.046;2024-01-30T09:47:15;102302.08;;;10.18;61.71
76730;BME280;65653;53.106;18.046;2024-01-30T09:49:43;102297.14;;;10.70;58.61
76730;BME280;65653;53.106;18.046;2024-01-30T09:52:11;102290.23;;;11.00;56.48
76730;BME280;65653;53.106;18.046;2024-01-30T09:54:38;102288.86;;;11.19;56.96
76730;BME280;65653;53.106;18.046;2024-01-30T09:57:04;102286.05;;;11.21;56.81
76730;BME280;65653;53.106;18.046;2024-01-30T09:59:31;102280.56;;;11.29;57.76
76730;BME280;65653;53.106;18.046;2024-01-30T10:01:58;102282.63;;;11.31;55.93
76730;BME280;65653;53.106;18.046;2024-01-30T10:04:24;102280.41;;;11.38;54.86
76730;BME280;65653;53.106;18.046;2024-01-30T10:06:51;102278.73;;;11.51;54.96
76730;BME280;65653;53.106;18.046;2024-01-30T10:09:17;102278.95;;;11.75;55.59
76730;BME280;65653;53.106;18.046;2024-01-30T10:11:44;102272.17;;;11.84;53.89
76730;BME280;65653;53.106;18.046;2024-01-30T10:14:10;102272.05;;;12.14;52.52
76730;BME280;65653;53.106;18.046;2024-01-30T10:16:37;102266.70;;;12.63;53.91
76730;BME280;65653;53.106;18.046;2024-01-30T10:19:03;102266.17;;;13.17;51.78
76730;BME280;65653;53.106;18.046;2024-01-30T10:21:30;102263.02;;;13.40;50.48
76730;BME280;65653;53.106;18.046;2024-01-30T10:23:56;102258.75;;;13.26;53.63
76730;BME280;65653;53.106;18.046;2024-01-30T10:26:23;102257.68;;;12.66;48.16
76730;BME280;65653;53.106;18.046;2024-01-30T10:28:49;102254.72;;;12.18;52.17
76730;BME280;65653;53.106;18.046;2024-01-30T10:31:17;102255.93;;;11.88;50.24
76730;BME280;65653;53.106;18.046;2024-01-30T10:33:44;102256.88;;;11.88;50.40
76730;BME280;65653;53.106;18.046;2024-01-30T10:36:14;102260.04;;;12.02;50.30
76730;BME280;65653;53.106;18.046;2024-01-30T10:38:43;102254.50;;;12.29;50.66
76730;BME280;65653;53.106;18.046;2024-01-30T10:41:12;102249.72;;;12.29;48.08
76730;BME280;65653;53.106;18.046;2024-01-30T10:43:41;102248.88;;;12.20;48.06
76730;BME280;65653;53.106;18.046;2024-01-30T10:46:18;102247.83;;;12.15;47.53
76730;BME280;65653;53.106;18.046;2024-01-30T10:48:50;102246.35;;;12.05;47.72
76730;BME280;65653;53.106;18.046;2024-01-30T10:51:22;102249.15;;;11.99;47.10
76730;BME280;65653;53.106;18.046;2024-01-30T10:53:49;102252.44;;;11.79;46.94
76730;BME280;65653;53.106;18.046;2024-01-30T10:56:17;102249.88;;;11.82;47.67
76730;BME280;65653;53.106;18.046;2024-01-30T10:58:45;102245.79;;;11.64;46.65
76730;BME280;65653;53.106;18.046;2024-01-30T11:01:12;102244.06;;;11.74;47.33
76730;BME280;65653;53.106;18.046;2024-01-30T11:03:39;102246.84;;;12.06;47.02
76730;BME280;65653;53.106;18.046;2024-01-30T11:06:10;102245.45;;;12.54;47.00
76730;BME280;65653;53.106;18.046;2024-01-30T11:08:37;102240.91;;;12.85;45.92
76730;BME280;65653;53.106;18.046;2024-01-30T11:11:08;102239.77;;;13.09;45.33
76730;BME280;65653;53.106;18.046;2024-01-30T11:13:35;102232.39;;;12.91;44.28
76730;BME280;65653;53.106;18.046;2024-01-30T11:16:05;102232.82;;;12.96;45.30
76730;BME280;65653;53.106;18.046;2024-01-30T11:18:35;102232.55;;;13.28;45.05
76730;BME280;65653;53.106;18.046;2024-01-30T11:21:04;102226.09;;;13.66;44.08
76730;BME280;65653;53.106;18.046;2024-01-30T11:23:33;102229.76;;;13.61;43.48
76730;BME280;65653;53.106;18.046;2024-01-30T11:26:00;102228.09;;;13.45;44.32
76730;BME280;65653;53.106;18.046;2024-01-30T11:28:32;102221.09;;;13.49;45.17
76730;BME280;65653;53.106;18.046;2024-01-30T11:31:06;102222.70;;;13.22;44.15
76730;BME280;65653;53.106;18.046;2024-01-30T11:33:38;102217.80;;;12.77;44.13
76730;BME280;65653;53.106;18.046;2024-01-30T11:36:08;102218.71;;;12.37;44.83
76730;BME280;65653;53.106;18.046;2024-01-30T11:38:34;102216.61;;;12.25;45.50
76730;BME280;65653;53.106;18.046;2024-01-30T11:41:04;102216.19;;;11.89;45.83
76730;BME280;65653;53.106;18.046;2024-01-30T11:43:30;102216.30;;;11.54;46.76
76730;BME280;65653;53.106;18.046;2024-01-30T11:45:57;102211.80;;;11.30;47.22
76730;BME280;65653;53.106;18.046;2024-01-30T11:48:24;102211.05;;;11.01;48.13
76730;BME280;65653;53.106;18.046;2024-01-30T11:50:52;102206.69;;;11.07;48.40
76730;BME280;65653;53.106;18.046;2024-01-30T11:53:19;102200.95;;;11.21;47.98
76730;BME280;65653;53.106;18.046;2024-01-30T11:55:51;102195.95;;;11.33;47.75
76730;BME280;65653;53.106;18.046;2024-01-30T11:58:19;102196.63;;;11.95;47.04
76730;BME280;65653;53.106;18.046;2024-01-30T12:00:53;102197.63;;;12.49;45.36
76730;BME280;65653;53.106;18.046;2024-01-30T12:03:22;102190.95;;;13.19;44.58
76730;BME280;65653;53.106;18.046;2024-01-30T12:05:58;102184.48;;;13.73;43.28
76730;BME280;65653;53.106;18.046;2024-01-30T12:08:24;102178.94;;;14.50;42.36
76730;BME280;65653;53.106;18.046;2024-01-30T12:10:57;102176.95;;;15.04;40.64
76730;BME280;65653;53.106;18.046;2024-01-30T12:13:31;102170.30;;;14.95;39.73
76730;BME280;65653;53.106;18.046;2024-01-30T12:15:58;102168.91;;;15.28;40.30
76730;BME280;65653;53.106;18.046;2024-01-30T12:18:25;102167.51;;;15.66;38.60
76730;BME280;65653;53.106;18.046;2024-01-30T12:21:01;102161.45;;;16.05;38.04
76730;BME280;65653;53.106;18.046;2024-01-30T12:23:27;102158.04;;;16.56;36.98
76730;BME280;65653;53.106;18.046;2024-01-30T12:25:54;102154.70;;;16.72;36.54
76730;BME280;65653;53.106;18.046;2024-01-30T12:28:21;102152.34;;;17.11;35.64
76730;BME280;65653;53.106;18.046;2024-01-30T12:30:48;102143.69;;;17.34;34.93
76730;BME280;65653;53.106;18.046;2024-01-30T12:33:18;102147.56;;;17.20;35.05
76730;BME280;65653;53.106;18.046;2024-01-30T12:35:48;102139.02;;;17.51;34.63
76730;BME280;65653;53.106;18.046;2024-01-30T12:38:14;102139.67;;;18.09;34.38
76730;BME280;65653;53.106;18.046;2024-01-30T12:40:41;102136.84;;;17.84;33.58